Continental Highway — H9LY — position and weather

sailwx.info

Track history (hours):
 
Tides and Currents Weather Stations Pressure Air Temp Water Temp Dewpoint Dewpoint Depression Visibility Wind Speed Wind Dir Waves Ship Positions

Continental Highway

Last reported at 2016-Sep-18 09:28 UTC. Time now 2016-Sep-25 10:37 UTC.
Position N 48°31' W 126°27'.

Length 199.9 m; beam 32.2 m.

Type: Cargo ship. MMSI: 351223000.

Date/timePositionNaut miles runAvg speedWind from/ knotsBaromVisibWave heightAir tempDewpointWater temp
2016-Sep-18 09:28N 48°31' W 126°27'11616.8
2016-Sep-18 02:33N 48°16' W 123°35'1212.2
2016-Sep-18 01:33N 48°23' W 123°20'1313.1
2016-Sep-18 00:33N 48°35' W 123°14'2211.0
2016-Sep-17 22:33N 48°57' W 123°13'10 9.9
2016-Sep-17 21:33N 49°07' W 123°16'1010.5
2016-Sep-17 20:33N 49°09' W 123°00'4 2.8
2016-Sep-17 19:14N 49°11' W 122°55'0 0.0
2016-Sep-17 13:32N 49°11' W 122°55'0 0.0
2016-Sep-17 12:32N 49°11' W 122°55'0 0.0
2016-Sep-17 10:33N 49°11' W 122°55'0 0.0
2016-Sep-17 09:32N 49°11' W 122°55'0 0.0
2016-Sep-17 08:32N 49°11' W 122°55'0 0.0
2016-Sep-17 07:32N 49°11' W 122°55'0 0.0
2016-Sep-17 05:32N 49°11' W 122°55'0 0.0
2016-Sep-17 04:32N 49°11' W 122°55'19 4.7
2016-Sep-17 00:33N 48°53' W 123°05'58 8.3
2016-Sep-16 17:33N 48°20' W 124°17'2914.4
2016-Sep-16 15:33N 48°28' W 124°59'4414.7
2016-Sep-16 12:34N 47°46' W 125°15'4816.0
2016-Sep-16 09:34N 46°60' W 124°55'3115.5
2016-Sep-16 07:33N 46°33' W 124°33'4511.2
2016-Sep-16 03:33N 46°15' W 123°33'1111.1
2016-Sep-16 02:33N 46°09' W 123°21'2211.0
2016-Sep-16 00:33N 46°01' W 122°51'2211.1
2016-Sep-15 22:33N 45°39' W 122°47'3 2.6
2016-Sep-15 21:32N 45°36' W 122°47'0 0.0
2016-Sep-15 20:32N 45°36' W 122°47'0 0.0
2016-Sep-15 18:32N 45°36' W 122°47'0 0.0
2016-Sep-15 12:29N 45°36' W 122°47'0 0.0
2016-Sep-15 11:26N 45°36' W 122°47'0 0.0
2016-Sep-15 04:32N 45°36' W 122°47'0 0.0
2016-Sep-15 03:29N 45°36' W 122°47'0 0.0
2016-Sep-15 01:23N 45°36' W 122°47'6 2.2
2016-Sep-14 22:33N 45°42' W 122°46'1313.5
2016-Sep-14 21:34N 45°55' W 122°48'4411.0
2016-Sep-14 17:34N 46°13' W 123°47'1111.1
2016-Sep-14 16:33N 46°16' W 124°02'3311.2
2016-Sep-14 13:33N 46°11' W 124°50'8 8.2
2016-Sep-14 12:33N 46°10' W 125°02'2713.7
2016-Sep-14 10:33N 46°11' W 125°41'1616.0
2016-Sep-14 09:33N 46°11' W 126°04'1615.8
2016-Sep-14 08:33N 46°11' W 126°27'1615.5
2016-Sep-14 07:33N 46°11' W 126°50'1615.5
2016-Sep-14 06:33N 46°11' W 127°12'4815.9
2016-Sep-14 03:33N 46°11' W 128°21'  
Track history (hours):
 
Tides and Currents Weather Stations Pressure Air Temp Water Temp Dewpoint Dewpoint Depression Visibility Wind Speed Wind Dir Waves Ship Positions

Continental Highway

Last reported at 2016-Sep-18 09:28 UTC. Time now 2016-Sep-25 10:37 UTC.
Position N 48°31' W 126°27'.

Length 199.9 m; beam 32.2 m.

Type: Cargo ship. MMSI: 351223000.

Date/timePositionNaut miles runAvg speedWind from/ knotsBaromVisibWave heightAir tempDewpointWater temp
2016-Sep-18 09:28N 48°31' W 126°27'11616.8
2016-Sep-18 02:33N 48°16' W 123°35'1212.2
2016-Sep-18 01:33N 48°23' W 123°20'1313.1
2016-Sep-18 00:33N 48°35' W 123°14'2211.0
2016-Sep-17 22:33N 48°57' W 123°13'10 9.9
2016-Sep-17 21:33N 49°07' W 123°16'1010.5
2016-Sep-17 20:33N 49°09' W 123°00'4 2.8
2016-Sep-17 19:14N 49°11' W 122°55'0 0.0
2016-Sep-17 13:32N 49°11' W 122°55'0 0.0
2016-Sep-17 12:32N 49°11' W 122°55'0 0.0
2016-Sep-17 10:33N 49°11' W 122°55'0 0.0
2016-Sep-17 09:32N 49°11' W 122°55'0 0.0
2016-Sep-17 08:32N 49°11' W 122°55'0 0.0
2016-Sep-17 07:32N 49°11' W 122°55'0 0.0
2016-Sep-17 05:32N 49°11' W 122°55'0 0.0
2016-Sep-17 04:32N 49°11' W 122°55'19 4.7
2016-Sep-17 00:33N 48°53' W 123°05'58 8.3
2016-Sep-16 17:33N 48°20' W 124°17'2914.4
2016-Sep-16 15:33N 48°28' W 124°59'4414.7
2016-Sep-16 12:34N 47°46' W 125°15'4816.0
2016-Sep-16 09:34N 46°60' W 124°55'3115.5
2016-Sep-16 07:33N 46°33' W 124°33'4511.2
2016-Sep-16 03:33N 46°15' W 123°33'1111.1
2016-Sep-16 02:33N 46°09' W 123°21'2211.0
2016-Sep-16 00:33N 46°01' W 122°51'2211.1
2016-Sep-15 22:33N 45°39' W 122°47'3 2.6
2016-Sep-15 21:32N 45°36' W 122°47'0 0.0
2016-Sep-15 20:32N 45°36' W 122°47'0 0.0
2016-Sep-15 18:32N 45°36' W 122°47'0 0.0
2016-Sep-15 12:29N 45°36' W 122°47'0 0.0
2016-Sep-15 11:26N 45°36' W 122°47'0 0.0
2016-Sep-15 04:32N 45°36' W 122°47'0 0.0
2016-Sep-15 03:29N 45°36' W 122°47'0 0.0
2016-Sep-15 01:23N 45°36' W 122°47'6 2.2
2016-Sep-14 22:33N 45°42' W 122°46'1313.5
2016-Sep-14 21:34N 45°55' W 122°48'4411.0
2016-Sep-14 17:34N 46°13' W 123°47'1111.1
2016-Sep-14 16:33N 46°16' W 124°02'3311.2
2016-Sep-14 13:33N 46°11' W 124°50'8 8.2
2016-Sep-14 12:33N 46°10' W 125°02'2713.7
2016-Sep-14 10:33N 46°11' W 125°41'1616.0
2016-Sep-14 09:33N 46°11' W 126°04'1615.8
2016-Sep-14 08:33N 46°11' W 126°27'1615.5
2016-Sep-14 07:33N 46°11' W 126°50'1615.5
2016-Sep-14 06:33N 46°11' W 127°12'4815.9
2016-Sep-14 03:33N 46°11' W 128°21'  

Dump ship's entire track history